CheckWX is a tool to help pilots better visualize weather data.  It is not intended as a substitute for an official pre-flight weather briefing.

04:18:36 UTC

EGQL METAR
RAF Leuchars Airport
St. Andrews, United Kingdom
Current

1 hour ago

EGQL 270250Z AUTO 27004KT 9999 NCD 09/09 Q1032
Observed
Jun-27 @ 02:50 UTC
Wind
  • 270° at 4 KTS
Visibility
10,000+ meters
Flight Rules
VFR
Cloud Levels
  • Clear skies
Temperature
C / 48°F
Dewpoint
C / 48°F
Humidity
100%
Altimeter
30.47" Hg
Pressure
1031.92 hPa
Previous

2 hours ago

EGQL 270150Z AUTO 28004KT 9999 NCD 09/08 Q1032
Observed
Jun-27 @ 01:50 UTC
Wind
  • 280° at 4 KTS
Visibility
10,000+ meters
Flight Rules
VFR
Cloud Levels
  • Clear skies
Temperature
C / 48°F
Dewpoint
C / 46°F
Humidity
94%
Altimeter
30.47" Hg
Pressure
1031.92 hPa
Previous

3 hours ago

EGQL 270050Z AUTO 28004KT 9999 NCD 09/09 Q1032
Observed
Jun-27 @ 00:50 UTC
Wind
  • 280° at 4 KTS
Visibility
10,000+ meters
Flight Rules
VFR
Cloud Levels
  • Clear skies
Temperature
C / 48°F
Dewpoint
C / 48°F
Humidity
100%
Altimeter
30.47" Hg
Pressure
1031.92 hPa